Time;durP1;ratioP1;P1;durP2;ratioP2;P2;SDS_P1;SDS_P2;PMS_P1;PMS_P2;Temp;Humidity;BMP_temperature;BMP_pressure;BME280_temperature;BME280_humidity;BME280_pressure;Samples;Min_cycle;Max_cycle;Signal;HPM_P1;HPM_P2
2022/06/20 00:02:05;;;;;;;18.57;11.90;;;23.10;99.90;;;;;;5019249;28;20469;-89
2022/06/20 00:04:31;;;;;;;12.53;11.23;;;23.10;99.90;;;;;;5016605;28;20433;-92
2022/06/20 00:06:56;;;;;;;13.60;11.10;;;22.90;99.90;;;;;;5031490;28;20796;-92
2022/06/20 00:09:22;;;;;;;15.70;11.67;;;22.90;99.90;;;;;;5028659;28;20195;-92
2022/06/20 00:11:50;;;;;;;13.47;11.83;;;23.00;99.90;;;;;;5016068;28;20302;-90
2022/06/20 00:14:18;;;;;;;14.77;10.67;;;23.00;99.90;;;;;;5033010;28;20184;-90
2022/06/20 00:16:44;;;;;;;11.73;10.53;;;23.00;99.90;;;;;;5035341;28;20445;-89
2022/06/20 00:19:11;;;;;;;18.07;12.50;;;22.90;99.90;;;;;;5029310;28;20807;-93
2022/06/20 00:21:38;;;;;;;13.90;12.60;;;22.70;99.90;;;;;;5024597;28;20245;-90
2022/06/20 00:24:05;;;;;;;13.77;12.47;;;22.70;99.90;;;;;;5008967;28;20442;-91
2022/06/20 00:26:30;;;;;;;13.70;12.30;;;22.70;99.90;;;;;;5030172;28;20446;-91
2022/06/20 00:28:56;;;;;;;12.87;11.37;;;22.60;99.90;;;;;;5030796;28;20440;-92
2022/06/20 00:31:22;;;;;;;14.23;11.47;;;22.60;99.90;;;;;;5012283;28;20180;-91
2022/06/20 00:33:48;;;;;;;13.53;12.27;;;22.60;99.90;;;;;;5031800;28;20219;-91
2022/06/20 00:36:14;;;;;;;13.20;11.67;;;22.50;99.90;;;;;;5030279;28;20237;-92
2022/06/20 00:38:42;;;;;;;16.57;11.50;;;22.40;99.90;;;;;;5030837;28;20226;-92
2022/06/20 00:41:15;;;;;;;12.57;11.40;;;22.30;99.90;;;;;;5029221;28;20452;-90
2022/06/20 00:43:45;;;;;;;14.90;12.30;;;22.30;99.90;;;;;;5032426;28;20442;-91
2022/06/20 00:46:30;;;;;;;16.37;11.57;;;22.30;99.90;;;;;;5029644;28;20430;-91
2022/06/20 00:49:22;;;;;;;13.33;12.03;;;22.30;99.90;;;;;;5032675;28;20555;-90
2022/06/20 00:52:08;;;;;;;13.50;12.20;;;22.20;99.90;;;;;;5032625;28;20564;-90
2022/06/20 00:54:39;;;;;;;18.40;12.60;;;22.10;99.90;;;;;;5019630;28;20795;-91
2022/06/20 00:57:29;;;;;;;16.13;12.23;;;22.10;99.90;;;;;;5031532;28;20445;-91
2022/06/20 01:00:06;;;;;;;12.40;11.30;;;22.30;99.90;;;;;;5027002;28;21792;-90
2022/06/20 01:02:41;;;;;;;13.97;12.20;;;22.50;99.90;;;;;;5027759;28;20429;-91
2022/06/20 01:05:43;;;;;;;12.50;11.23;;;22.50;99.90;;;;;;5030487;28;20945;-90
2022/06/20 01:08:17;;;;;;;12.53;11.27;;;22.60;99.90;;;;;;5000615;28;20425;-90
2022/06/20 01:11:22;;;;;;;13.63;12.33;;;22.40;99.90;;;;;;5023545;28;20443;-92
2022/06/20 01:13:51;;;;;;;14.87;11.60;;;22.60;99.90;;;;;;5008293;28;20457;-91
2022/06/20 01:16:26;;;;;;;12.23;11.07;;;22.50;99.90;;;;;;5019485;28;20999;-91
2022/06/20 01:18:52;;;;;;;13.07;11.77;;;22.40;99.90;;;;;;5035082;28;20479;-90
2022/06/20 01:21:30;;;;;;;13.07;11.43;;;22.50;99.90;;;;;;5015353;28;20466;-89
2022/06/20 01:24:20;;;;;;;14.40;11.37;;;22.40;99.90;;;;;;5030591;28;21017;-90
2022/06/20 01:27:13;;;;;;;13.47;12.27;;;22.40;99.90;;;;;;5020611;28;20453;-90
2022/06/20 01:29:39;;;;;;;11.87;10.77;;;22.40;99.90;;;;;;5024953;28;20439;-90
2022/06/20 01:32:05;;;;;;;19.87;11.70;;;22.40;99.90;;;;;;5027279;28;20579;-91
2022/06/20 01:34:35;;;;;;;13.50;11.60;;;22.30;99.90;;;;;;5030590;28;20519;-90
2022/06/20 01:37:25;;;;;;;12.17;10.87;;;22.30;99.90;;;;;;5020302;28;20494;-91
2022/06/20 01:39:54;;;;;;;13.27;11.87;;;22.20;99.90;;;;;;5026989;28;20806;-90
2022/06/20 01:42:21;;;;;;;17.43;11.67;;;22.20;99.90;;;;;;5005510;28;20551;-89
2022/06/20 01:45:02;;;;;;;12.90;10.67;;;22.20;99.90;;;;;;5031364;28;20813;-90
2022/06/20 01:47:29;;;;;;;13.27;11.67;;;22.20;99.90;;;;;;5008272;28;20529;-90
2022/06/20 01:50:02;;;;;;;15.33;13.00;;;22.20;99.90;;;;;;5031995;28;20465;-90
2022/06/20 01:52:35;;;;;;;12.90;11.27;;;22.20;99.90;;;;;;5025028;28;20483;-90
2022/06/20 01:55:14;;;;;;;16.60;12.37;;;22.20;99.90;;;;;;5025595;28;20434;-90
2022/06/20 01:57:42;;;;;;;11.90;10.70;;;22.20;99.90;;;;;;5028131;28;20485;-90
2022/06/20 02:00:26;;;;;;;12.30;10.90;;;22.30;99.90;;;;;;5011271;28;20569;-90
2022/06/20 02:03:11;;;;;;;13.97;11.60;;;22.30;99.90;;;;;;5013527;28;20563;-90
2022/06/20 02:05:37;;;;;;;15.43;12.23;;;22.40;99.90;;;;;;5025990;28;20529;-91
2022/06/20 02:08:06;;;;;;;21.83;11.70;;;22.40;99.90;;;;;;5032633;28;20529;-91
2022/06/20 02:10:54;;;;;;;13.20;11.43;;;22.30;99.90;;;;;;5012390;28;20529;-90
2022/06/20 02:13:21;;;;;;;13.23;11.80;;;22.30;99.90;;;;;;5024656;28;20565;-90
2022/06/20 02:15:49;;;;;;;12.20;11.10;;;22.30;99.90;;;;;;5033429;28;20434;-90
2022/06/20 02:18:17;;;;;;;12.63;11.43;;;22.40;99.90;;;;;;5010441;28;20435;-90
2022/06/20 02:20:46;;;;;;;12.30;10.97;;;22.30;99.90;;;;;;5026780;28;20429;-91
2022/06/20 02:23:16;;;;;;;13.77;11.77;;;22.30;99.90;;;;;;5009802;28;20427;-92
2022/06/20 02:25:43;;;;;;;26.10;12.23;;;22.10;99.90;;;;;;5028635;28;20591;-91
2022/06/20 02:28:14;;;;;;;16.70;12.00;;;22.00;99.90;;;;;;5026819;28;20665;-90
2022/06/20 02:30:40;;;;;;;14.93;12.07;;;21.80;99.90;;;;;;5025880;28;20439;-91
2022/06/20 02:33:17;;;;;;;17.10;13.10;;;21.80;99.90;;;;;;5032349;28;20473;-90
2022/06/20 02:35:44;;;;;;;12.83;11.60;;;21.80;99.90;;;;;;5013487;28;20192;-90
2022/06/20 02:38:10;;;;;;;19.77;11.53;;;21.80;99.90;;;;;;5016262;28;20449;-90
2022/06/20 02:40:41;;;;;;;15.60;11.90;;;21.80;99.90;;;;;;5012117;28;20438;-89
2022/06/20 02:43:16;;;;;;;14.60;11.83;;;21.80;99.90;;;;;;5015935;28;20438;-90
2022/06/20 02:45:44;;;;;;;14.10;12.33;;;21.80;99.90;;;;;;5007984;28;20434;-89
2022/06/20 02:48:11;;;;;;;17.47;11.83;;;21.80;99.90;;;;;;5018667;28;20437;-89
2022/06/20 02:50:43;;;;;;;13.73;11.73;;;21.70;99.90;;;;;;5021928;28;20464;-89
2022/06/20 02:53:27;;;;;;;13.17;11.60;;;21.70;99.90;;;;;;5025492;28;20539;-90
2022/06/20 02:55:55;;;;;;;13.07;11.77;;;21.80;99.90;;;;;;5026440;28;20801;-91
2022/06/20 02:58:29;;;;;;;12.50;11.23;;;21.70;99.90;;;;;;5024866;28;20442;-89
2022/06/20 03:01:04;;;;;;;14.50;12.03;;;21.70;99.90;;;;;;5016712;28;20804;-90
2022/06/20 03:03:35;;;;;;;16.53;12.03;;;21.50;99.90;;;;;;5016122;28;20469;-90
2022/06/20 03:06:01;;;;;;;14.40;12.30;;;21.50;99.90;;;;;;5022783;28;20789;-89
2022/06/20 03:08:28;;;;;;;15.10;12.73;;;21.60;99.90;;;;;;5011398;28;20446;-90
2022/06/20 03:10:55;;;;;;;24.33;15.77;;;21.80;99.90;;;;;;5028540;28;20445;-92
2022/06/20 03:13:22;;;;;;;18.97;15.00;;;21.40;99.90;;;;;;5024410;28;20474;-92
2022/06/20 03:15:50;;;;;;;22.70;15.07;;;20.60;99.90;;;;;;5019814;28;20438;-90
2022/06/20 03:18:18;;;;;;;26.03;15.43;;;20.20;99.90;;;;;;5006237;28;20486;-89
2022/06/20 03:20:45;;;;;;;24.47;16.10;;;20.00;99.90;;;;;;5002452;28;20925;-91
2022/06/20 03:23:31;;;;;;;19.43;15.93;;;19.90;99.90;;;;;;5004503;28;20449;-91
2022/06/20 03:25:59;;;;;;;19.10;15.60;;;19.90;99.90;;;;;;5011254;28;20450;-92
2022/06/20 03:28:25;;;;;;;17.77;14.50;;;20.00;99.90;;;;;;5007111;28;20801;-91
2022/06/20 03:30:52;;;;;;;18.73;15.00;;;19.80;99.90;;;;;;5012662;28;20442;-91
2022/06/20 03:33:21;;;;;;;17.00;14.73;;;19.70;99.90;;;;;;5025118;28;21188;-92
2022/06/20 03:35:54;;;;;;;16.60;14.90;;;19.80;99.90;;;;;;5031136;28;20434;-92
2022/06/20 03:38:21;;;;;;;17.93;14.93;;;19.80;99.90;;;;;;5028517;28;20451;-92
2022/06/20 03:40:47;;;;;;;19.73;14.70;;;19.70;99.90;;;;;;5024452;28;20438;-93
2022/06/20 03:43:17;;;;;;;17.27;14.70;;;19.80;99.90;;;;;;5025169;28;20442;-92
2022/06/20 03:45:48;;;;;;;22.00;14.97;;;19.90;99.90;;;;;;5025370;28;20446;-91
2022/06/20 03:48:18;;;;;;;18.70;14.47;;;19.90;99.90;;;;;;5028924;28;20528;-92
2022/06/20 03:51:19;;;;;;;14.87;13.37;;;19.90;99.90;;;;;;5012963;28;20533;-92
2022/06/20 03:54:04;;;;;;;17.23;13.50;;;19.80;99.90;;;;;;4977689;28;20526;-92
2022/06/20 03:56:52;;;;;;;15.70;14.20;;;19.70;99.90;;;;;;5027261;28;21157;-92
2022/06/20 03:59:22;;;;;;;17.37;14.33;;;19.60;99.90;;;;;;5003713;28;20533;-92
2022/06/20 04:02:11;;;;;;;16.30;14.23;;;19.60;99.90;;;;;;5005521;28;20464;-92
2022/06/20 04:04:44;;;;;;;17.33;13.30;;;19.60;99.90;;;;;;5027669;28;20991;-95
2022/06/20 04:07:23;;;;;;;14.47;13.07;;;19.70;99.90;;;;;;5013621;28;20531;-92
2022/06/20 04:12:44;;;;;;;18.10;13.27;;;19.70;99.90;;;;;;5029748;28;20507;-92
2022/06/20 04:15:12;;;;;;;16.10;14.50;;;19.60;99.90;;;;;;5030033;28;20458;-91
2022/06/20 04:20:58;;;;;;;15.13;13.63;;;19.90;99.90;;;;;;5027039;28;21492;-93
2022/06/20 04:23:27;;;;;;;16.90;12.67;;;20.10;99.90;;;;;;5007167;28;20467;-93
2022/06/20 04:26:00;;;;;;;14.97;12.63;;;20.40;99.90;;;;;;5012838;28;20465;-94
2022/06/20 04:28:39;;;;;;;16.37;12.13;;;20.60;99.90;;;;;;5014201;28;20430;-92
2022/06/20 04:31:29;;;;;;;16.00;13.10;;;20.60;99.90;;;;;;4999911;28;20443;-92
2022/06/20 04:34:09;;;;;;;16.40;11.90;;;20.70;99.90;;;;;;5031421;28;20468;-93
2022/06/20 04:36:54;;;;;;;16.93;11.90;;;20.80;99.90;;;;;;5022277;28;20876;-92
2022/06/20 04:39:30;;;;;;;15.10;12.90;;;20.80;99.90;;;;;;5032627;28;20531;-92
2022/06/20 04:42:05;;;;;;;17.23;12.33;;;20.90;99.90;;;;;;5031933;28;20429;-93
2022/06/20 04:44:49;;;;;;;17.00;11.80;;;20.90;99.90;;;;;;5016352;28;20499;-93
2022/06/20 04:47:30;;;;;;;20.53;12.80;;;21.00;99.90;;;;;;5003921;28;20446;-91
2022/06/20 04:49:56;;;;;;;17.37;13.50;;;20.90;99.90;;;;;;5006874;28;20874;-93
2022/06/20 04:52:29;;;;;;;16.23;13.53;;;20.60;99.90;;;;;;5010203;28;20569;-91
2022/06/20 04:54:56;;;;;;;15.80;14.03;;;20.40;99.90;;;;;;5013356;28;20418;-93
2022/06/20 04:57:25;;;;;;;16.47;14.83;;;20.30;99.90;;;;;;5024651;28;21016;-91
2022/06/20 04:59:54;;;;;;;14.97;13.57;;;20.40;99.90;;;;;;5026584;28;20517;-90
2022/06/20 05:02:24;;;;;;;15.83;14.13;;;20.40;99.90;;;;;;5015824;28;20443;-92
2022/06/20 05:04:52;;;;;;;14.53;12.90;;;20.40;99.90;;;;;;5026097;28;20456;-92
2022/06/20 05:07:26;;;;;;;14.53;13.03;;;20.40;99.90;;;;;;5012959;28;20546;-92
2022/06/20 05:09:58;;;;;;;14.10;12.70;;;20.60;99.90;;;;;;5021390;28;20445;-91
2022/06/20 05:12:49;;;;;;;16.63;12.77;;;20.60;99.90;;;;;;5027386;28;20478;-91
2022/06/20 05:15:38;;;;;;;16.13;13.43;;;20.60;99.90;;;;;;5030600;28;20528;-90
2022/06/20 05:18:28;;;;;;;18.40;12.93;;;20.90;99.90;;;;;;5019228;28;24873;-90
2022/06/20 05:20:58;;;;;;;15.40;13.07;;;21.10;99.90;;;;;;5025951;28;21042;-91
2022/06/20 05:23:42;;;;;;;15.27;13.83;;;21.30;99.90;;;;;;5022712;28;20549;-91
2022/06/20 05:26:17;;;;;;;17.20;13.67;;;21.30;99.90;;;;;;5007851;28;20995;-90
2022/06/20 05:28:46;;;;;;;16.10;14.40;;;21.30;99.90;;;;;;5020419;28;20513;-90
2022/06/20 05:31:16;;;;;;;17.30;14.50;;;21.20;99.90;;;;;;5015146;28;20448;-90
2022/06/20 05:33:49;;;;;;;16.53;14.93;;;21.30;99.90;;;;;;5003115;28;20473;-92
2022/06/20 05:36:34;;;;;;;15.60;14.10;;;21.30;99.90;;;;;;5019923;28;20793;-92
2022/06/20 05:39:18;;;;;;;15.87;14.20;;;21.30;99.90;;;;;;5016243;28;20604;-87
2022/06/20 05:41:44;;;;;;;15.47;13.07;;;21.30;99.90;;;;;;5019485;28;21853;-89
2022/06/20 05:44:13;;;;;;;17.30;14.03;;;21.30;99.90;;;;;;5004054;28;21062;-89
2022/06/20 05:46:48;;;;;;;22.00;14.40;;;21.40;99.90;;;;;;5007365;28;20873;-89
2022/06/20 05:49:21;;;;;;;16.13;14.47;;;21.20;99.90;;;;;;5005475;28;20525;-89
2022/06/20 05:51:47;;;;;;;17.37;15.60;;;21.10;99.90;;;;;;5035853;28;20445;-88
2022/06/20 05:54:21;;;;;;;16.93;15.03;;;20.90;99.90;;;;;;5018091;28;20549;-89
2022/06/20 05:57:15;;;;;;;19.27;15.40;;;20.80;99.90;;;;;;5020583;28;20698;-89
2022/06/20 05:59:48;;;;;;;19.87;15.37;;;20.60;99.90;;;;;;5007032;28;20947;-89
2022/06/20 06:02:14;;;;;;;17.43;15.73;;;20.60;99.90;;;;;;5007059;28;20437;-89
2022/06/20 06:04:49;;;;;;;16.30;14.60;;;20.70;99.90;;;;;;5019967;28;20431;-87
2022/06/20 06:07:21;;;;;;;15.60;14.10;;;20.70;99.90;;;;;;4996480;28;20195;-88
2022/06/20 06:10:23;;;;;;;16.63;14.93;;;20.80;99.90;;;;;;5020029;28;20560;-87
2022/06/20 06:13:25;;;;;;;17.83;16.00;;;21.20;99.90;;;;;;5017287;28;20466;-89
2022/06/20 06:19:11;;;;;;;16.20;14.30;;;21.00;99.90;;;;;;5022855;28;20449;-88
2022/06/20 06:21:37;;;;;;;19.40;15.50;;;21.30;99.90;;;;;;5019831;28;20435;-88
2022/06/20 06:24:06;;;;;;;16.20;14.70;;;21.50;99.90;;;;;;5024012;28;20447;-88
2022/06/20 06:26:34;;;;;;;15.50;13.90;;;21.80;99.90;;;;;;5005180;28;20183;-88
2022/06/20 06:28:59;;;;;;;16.10;14.70;;;22.00;99.90;;;;;;5016569;28;20471;-88
2022/06/20 06:31:37;;;;;;;16.10;13.83;;;22.20;99.90;;;;;;5006234;28;20545;-89
2022/06/20 06:34:15;;;;;;;16.40;14.80;;;22.30;99.90;;;;;;5023037;28;20199;-88
2022/06/20 06:36:46;;;;;;;16.93;14.70;;;22.30;99.90;;;;;;5017681;28;21078;-87
2022/06/20 06:39:41;;;;;;;16.00;14.60;;;22.20;99.90;;;;;;5020969;28;20480;-89
2022/06/20 06:42:12;;;;;;;16.40;14.10;;;22.30;99.90;;;;;;4999209;28;20480;-89
2022/06/20 06:44:44;;;;;;;15.97;13.80;;;22.70;99.90;;;;;;5005948;28;20789;-89
2022/06/20 06:47:46;;;;;;;17.00;13.30;;;22.90;99.90;;;;;;5028124;28;20431;-88
2022/06/20 06:50:53;;;;;;;15.07;13.07;;;22.90;99.90;;;;;;5008562;28;20812;-89
2022/06/20 06:54:01;;;;;;;22.53;20.33;;;22.80;99.90;;;;;;5002727;28;20479;-87
2022/06/20 06:56:35;;;;;;;46.07;41.97;;;22.60;99.90;;;;;;5003417;28;20445;-86
2022/06/20 06:59:14;;;;;;;15.67;13.87;;;22.40;99.90;;;;;;5010499;28;20435;-84
2022/06/20 07:01:46;;;;;;;17.73;13.93;;;22.30;99.90;;;;;;5025009;28;20449;-85
2022/06/20 07:04:23;;;;;;;18.17;15.03;;;22.20;99.90;;;;;;5004614;28;21280;-83
2022/06/20 07:07:06;;;;;;;15.70;14.10;;;22.30;99.90;;;;;;5033326;28;20441;-85
2022/06/20 07:09:35;;;;;;;16.23;14.60;;;22.40;99.90;;;;;;5026492;28;20441;-84
2022/06/20 07:12:25;;;;;;;16.70;15.03;;;22.60;99.90;;;;;;5025337;28;20600;-85
2022/06/20 07:15:10;;;;;;;18.57;15.47;;;22.60;99.90;;;;;;5024887;28;20430;-85
2022/06/20 07:17:40;;;;;;;16.43;14.80;;;22.50;99.90;;;;;;5021685;28;20447;-86
2022/06/20 07:20:07;;;;;;;17.53;15.50;;;22.50;99.90;;;;;;5012580;28;20822;-84
2022/06/20 07:22:36;;;;;;;17.63;15.80;;;22.70;99.90;;;;;;5025883;28;20838;-85
2022/06/20 07:25:03;;;;;;;19.53;16.20;;;22.90;99.90;;;;;;5028675;28;20492;-85
2022/06/20 07:27:41;;;;;;;18.43;16.00;;;22.80;99.90;;;;;;5011624;28;20451;-86
2022/06/20 07:30:10;;;;;;;15.90;14.30;;;22.40;99.90;;;;;;5022390;28;20438;-85
2022/06/20 07:32:42;;;;;;;16.13;14.63;;;22.30;99.90;;;;;;5022462;28;20580;-86
2022/06/20 07:35:15;;;;;;;16.53;14.90;;;22.30;99.90;;;;;;5012376;28;20442;-86
2022/06/20 07:38:21;;;;;;;16.07;14.53;;;22.40;99.90;;;;;;5001249;28;20443;-87
2022/06/20 07:40:55;;;;;;;17.03;15.23;;;22.80;99.90;;;;;;4998030;28;20443;-86
2022/06/20 07:43:34;;;;;;;17.13;15.53;;;23.00;99.90;;;;;;5025817;28;20749;-84
2022/06/20 07:46:08;;;;;;;18.30;15.57;;;23.10;99.90;;;;;;5024435;28;20842;-86
2022/06/20 07:48:40;;;;;;;15.83;14.33;;;23.00;99.90;;;;;;5003942;28;20460;-85
2022/06/20 07:51:23;;;;;;;15.37;13.87;;;23.10;99.90;;;;;;5025022;28;20449;-85
2022/06/20 07:54:24;;;;;;;;;;;;;;;;;;;;;
2022/06/20 07:57:01;;;;;;;20.67;14.93;;;23.40;99.90;;;;;;5022823;28;20434;-85
2022/06/20 07:59:48;;;;;;;16.83;14.43;;;23.40;99.90;;;;;;5017491;28;20497;-85
2022/06/20 08:02:32;;;;;;;15.73;14.17;;;23.40;99.90;;;;;;5002900;28;20438;-84
2022/06/20 08:05:00;;;;;;;17.77;15.77;;;23.50;99.90;;;;;;5030238;28;20442;-84
2022/06/20 08:07:32;;;;;;;17.43;15.60;;;23.60;99.90;;;;;;5002242;28;20470;-86
2022/06/20 08:10:28;;;;;;;16.90;15.40;;;23.80;99.90;;;;;;5009095;28;20458;-88
2022/06/20 08:13:02;;;;;;;17.37;15.57;;;24.10;99.90;;;;;;5026257;28;20560;-88
2022/06/20 08:15:39;;;;;;;15.50;14.03;;;24.40;99.90;;;;;;5032090;28;20441;-88
2022/06/20 08:18:04;;;;;;;17.53;15.63;;;24.80;99.90;;;;;;5015213;28;20469;-89
2022/06/20 08:20:36;;;;;;;16.57;14.90;;;25.10;99.90;;;;;;5015834;28;20515;-88
2022/06/20 08:23:30;;;;;;;19.33;15.73;;;25.20;99.90;;;;;;5029285;28;20194;-90
2022/06/20 08:25:58;;;;;;;14.57;12.80;;;25.20;99.90;;;;;;5008819;28;20453;-89
2022/06/20 08:28:33;;;;;;;18.70;16.80;;;25.30;99.90;;;;;;5007570;28;21130;-88
2022/06/20 08:31:11;;;;;;;17.23;13.43;;;25.50;99.90;;;;;;5007235;28;20437;-89
2022/06/20 08:34:14;;;;;;;16.90;15.40;;;25.50;99.90;;;;;;5022789;28;20485;-89
2022/06/20 08:36:55;;;;;;;17.50;14.30;;;25.50;99.90;;;;;;5001005;28;20449;-88
2022/06/20 08:39:42;;;;;;;15.77;14.27;;;25.70;99.90;;;;;;5007934;28;20537;-88
2022/06/20 08:42:46;;;;;;;15.60;14.10;;;25.90;99.90;;;;;;5023083;28;20433;-89
2022/06/20 08:45:39;;;;;;;13.93;12.63;;;26.00;99.90;;;;;;5008344;28;20430;-90
2022/06/20 08:48:32;;;;;;;13.57;12.17;;;26.20;99.90;;;;;;5034157;28;20465;-88
2022/06/20 08:51:35;;;;;;;13.03;11.73;;;26.40;99.90;;;;;;5034640;28;20446;-89
2022/06/20 08:54:28;;;;;;;12.33;11.13;;;26.30;99.90;;;;;;5024015;28;20473;-88
2022/06/20 08:57:09;;;;;;;13.40;12.00;;;26.30;99.90;;;;;;5031397;28;20434;-87
2022/06/20 08:59:59;;;;;;;13.60;12.03;;;26.30;99.90;;;;;;5022793;28;20521;-86
2022/06/20 09:02:52;;;;;;;19.90;18.00;;;26.40;99.90;;;;;;5009570;28;20484;-87
2022/06/20 09:05:37;;;;;;;14.10;12.43;;;26.10;99.90;;;;;;5008412;28;21073;-89
2022/06/20 09:08:28;;;;;;;12.67;11.57;;;25.90;99.90;;;;;;5012299;28;20819;-91
2022/06/20 09:11:06;;;;;;;13.13;11.73;;;25.90;99.90;;;;;;5011568;28;20431;-90
2022/06/20 09:14:02;;;;;;;13.20;11.60;;;26.20;99.90;;;;;;5019189;28;20481;-89
2022/06/20 09:17:05;;;;;;;14.43;12.10;;;26.30;99.90;;;;;;5018091;28;21461;-91
2022/06/20 09:19:33;;;;;;;13.03;11.73;;;26.00;99.90;;;;;;4966078;28;20435;-90
2022/06/20 09:22:42;;;;;;;18.13;13.40;;;25.70;99.90;;;;;;5005392;28;20443;-90
2022/06/20 09:25:38;;;;;;;12.93;11.23;;;26.10;99.90;;;;;;5029356;28;20446;-90
2022/06/20 09:28:35;;;;;;;16.30;12.20;;;26.50;99.90;;;;;;5017056;28;21778;-90
2022/06/20 09:31:06;;;;;;;14.53;13.00;;;26.80;99.90;;;;;;5001763;28;21180;-91
2022/06/20 09:34:10;;;;;;;13.70;12.30;;;26.90;99.90;;;;;;5024881;28;20568;-90
2022/06/20 09:36:54;;;;;;;13.67;11.70;;;27.00;99.90;;;;;;5004166;28;20484;-90
2022/06/20 09:39:26;;;;;;;12.60;11.30;;;27.10;99.90;;;;;;5018062;28;21030;-91
2022/06/20 09:42:08;;;;;;;12.27;11.30;;;27.00;99.90;;;;;;5007799;28;20473;-90
2022/06/20 09:44:58;;;;;;;17.60;11.50;;;27.20;99.90;;;;;;5009614;28;20445;-89
2022/06/20 09:47:32;;;;;;;13.33;10.43;;;27.50;99.90;;;;;;5028120;28;20533;-90
2022/06/20 09:50:14;;;;;;;14.90;12.00;;;27.40;99.90;;;;;;5004223;28;20438;-89
2022/06/20 09:52:51;;;;;;;14.20;12.50;;;26.80;99.90;;;;;;5001645;28;20508;-88
2022/06/20 09:55:43;;;;;;;13.40;11.63;;;27.00;99.90;;;;;;5025935;28;20450;-89
2022/06/20 09:58:18;;;;;;;13.97;11.10;;;27.60;99.90;;;;;;5005871;28;20434;-91
2022/06/20 10:01:07;;;;;;;12.17;10.97;;;28.00;99.90;;;;;;5014336;28;20456;-89
2022/06/20 10:04:08;;;;;;;12.27;10.77;;;28.20;99.90;;;;;;5024518;28;20478;-89
2022/06/20 10:07:07;;;;;;;12.47;9.93;;;28.60;99.60;;;;;;5027799;28;20438;-87
2022/06/20 10:10:25;;;;;;;;;;;;;;;;;;;;;
2022/06/20 10:14:08;;;;;;;10.40;9.50;;;28.10;98.20;;;;;;5025635;28;20915;-91
2022/06/20 10:17:24;;;;;;;;;;;;;;;;;;;;;
2022/06/20 10:20:16;;;;;;;11.57;10.27;;;28.20;96.90;;;;;;4974666;28;20955;-88
2022/06/20 10:23:09;;;;;;;11.80;10.80;;;27.60;97.40;;;;;;5024130;28;20439;-89
2022/06/20 10:26:28;;;;;;;11.23;10.23;;;27.90;99.10;;;;;;5008410;28;20470;-88
2022/06/20 10:32:51;;;;;;;;;;;;;;;;;;;;;
2022/06/20 10:35:25;;;;;;;12.77;9.93;;;29.50;96.10;;;;;;5023531;28;20426;-89
2022/06/20 10:38:00;;;;;;;11.47;9.83;;;29.30;95.40;;;;;;5033571;28;20446;-89
2022/06/20 10:40:45;;;;;;;11.63;10.43;;;29.30;96.90;;;;;;5021931;28;20479;-87
2022/06/20 10:43:21;;;;;;;10.70;9.70;;;29.30;95.60;;;;;;5019252;28;20689;-88
2022/06/20 10:46:13;;;;;;;10.97;9.90;;;29.00;95.80;;;;;;5036456;28;20472;-88
2022/06/20 10:48:57;;;;;;;12.90;9.40;;;29.10;95.90;;;;;;5010953;28;20443;-87
2022/06/20 10:51:54;;;;;;;10.50;9.70;;;28.90;96.20;;;;;;5011192;28;20481;-87
2022/06/20 10:54:55;;;;;;;10.27;9.10;;;29.40;95.90;;;;;;4990667;28;20566;-88
2022/06/20 10:57:55;;;;;;;11.43;10.33;;;30.40;94.30;;;;;;5005388;28;20536;-88
2022/06/20 11:04:18;;;;;;;10.67;9.67;;;29.50;92.00;;;;;;5037495;22;20486;-88
2022/06/20 11:07:07;;;;;;;9.87;9.07;;;29.30;94.10;;;;;;5028561;28;20434;-88
2022/06/20 11:09:35;;;;;;;13.00;11.00;;;30.10;92.30;;;;;;5011313;28;20495;-89
2022/06/20 11:12:33;;;;;;;11.43;10.03;;;30.00;91.60;;;;;;5009929;28;20441;-87
2022/06/20 11:15:27;;;;;;;13.33;8.93;;;29.60;92.70;;;;;;5009620;28;20454;-87
2022/06/20 11:18:29;;;;;;;13.53;12.00;;;29.10;92.00;;;;;;5033282;28;20445;-87
2022/06/20 11:21:37;;;;;;;10.47;9.23;;;28.90;93.50;;;;;;5029600;28;20533;-87
2022/06/20 11:24:21;;;;;;;8.57;7.77;;;28.80;94.20;;;;;;4996851;28;20564;-90
2022/06/20 11:26:55;;;;;;;7.77;6.73;;;29.10;92.50;;;;;;5008695;28;20466;-90
2022/06/20 11:29:45;;;;;;;9.63;7.43;;;29.50;92.30;;;;;;5023986;28;20572;-90
2022/06/20 11:32:14;;;;;;;7.90;7.10;;;29.60;89.90;;;;;;5019142;28;20904;-91
2022/06/20 11:34:57;;;;;;;7.37;5.60;;;29.00;89.00;;;;;;5025821;28;20501;-90
2022/06/20 11:37:49;;;;;;;5.67;5.20;;;28.20;89.20;;;;;;5029460;28;20511;-90
2022/06/20 11:40:40;;;;;;;6.00;5.23;;;27.70;90.60;;;;;;5022406;28;20454;-90
2022/06/20 11:43:24;;;;;;;6.73;5.23;;;27.60;90.10;;;;;;5023523;28;20543;-89
2022/06/20 11:45:56;;;;;;;6.27;5.30;;;27.20;90.20;;;;;;5009795;28;20509;-89
2022/06/20 11:48:33;;;;;;;6.87;4.80;;;27.40;90.60;;;;;;5037411;28;20442;-90
2022/06/20 11:51:27;;;;;;;5.20;4.80;;;27.20;90.50;;;;;;5011460;28;21135;-90
2022/06/20 11:54:22;;;;;;;6.20;4.87;;;27.00;90.00;;;;;;5022235;28;20477;-89
2022/06/20 11:57:03;;;;;;;5.53;5.07;;;26.80;90.50;;;;;;5024168;28;20535;-90
2022/06/20 11:59:53;;;;;;;5.30;5.00;;;26.60;90.60;;;;;;5023743;28;20503;-90
2022/06/20 12:02:53;;;;;;;5.73;5.00;;;26.30;90.70;;;;;;5023710;28;21114;-90
2022/06/20 12:05:19;;;;;;;7.20;4.57;;;26.10;90.80;;;;;;5007752;28;20581;-90
2022/06/20 12:07:58;;;;;;;6.47;5.83;;;26.10;91.30;;;;;;5024118;28;20437;-90
2022/06/20 12:10:44;;;;;;;8.80;6.50;;;26.40;91.90;;;;;;5018792;28;20896;-88
2022/06/20 12:13:47;;;;;;;10.37;7.37;;;26.60;92.90;;;;;;5002547;28;20825;-90
2022/06/20 12:16:47;;;;;;;10.57;7.40;;;26.10;93.80;;;;;;5025894;28;20440;-89
2022/06/20 12:25:31;;;;;;;8.17;6.70;;;26.60;93.90;;;;;;5034042;28;20506;-88
2022/06/20 12:27:58;;;;;;;5.90;5.50;;;26.50;94.20;;;;;;5026327;28;20442;-91
2022/06/20 12:30:24;;;;;;;5.27;4.77;;;26.80;92.60;;;;;;5038143;28;20963;-89
2022/06/20 12:32:54;;;;;;;5.80;4.40;;;26.90;91.30;;;;;;5031224;28;20448;-90
2022/06/20 12:35:40;;;;;;;5.10;4.40;;;26.40;91.50;;;;;;5014684;28;20829;-92
2022/06/20 12:38:31;;;;;;;4.03;3.57;;;26.60;92.10;;;;;;5034984;28;20966;-91
2022/06/20 12:41:04;;;;;;;6.77;3.67;;;26.60;91.00;;;;;;5017298;28;20441;-88
2022/06/20 12:43:39;;;;;;;3.47;3.07;;;26.70;90.10;;;;;;5026770;28;20505;-90
2022/06/20 12:46:52;;;;;;;2.93;2.57;;;26.20;90.30;;;;;;5019288;28;20433;-91
2022/06/20 12:49:33;;;;;;;3.90;2.80;;;25.70;90.20;;;;;;5031867;28;20442;-90
2022/06/20 12:52:18;;;;;;;4.03;2.67;;;25.70;91.10;;;;;;5036278;28;20446;-91
2022/06/20 12:54:55;;;;;;;2.97;2.77;;;25.50;91.10;;;;;;5035313;28;20449;-92
2022/06/20 12:57:58;;;;;;;4.03;3.17;;;25.50;91.80;;;;;;5033768;28;20447;-91
2022/06/20 13:00:36;;;;;;;3.80;3.50;;;25.20;92.20;;;;;;5035588;28;20465;-89
2022/06/20 13:03:39;;;;;;;5.10;4.57;;;25.20;92.90;;;;;;5034706;28;20499;-88
2022/06/20 13:06:22;;;;;;;7.03;5.53;;;25.20;94.10;;;;;;5035007;28;20541;-90
2022/06/20 13:09:09;;;;;;;7.37;5.77;;;25.30;94.60;;;;;;5032928;28;20470;-90
2022/06/20 13:11:58;;;;;;;7.20;5.80;;;25.10;95.70;;;;;;5035550;28;20446;-90
2022/06/20 13:14:42;;;;;;;7.73;5.23;;;25.00;95.80;;;;;;5016557;28;20439;-90
2022/06/20 13:17:32;;;;;;;6.67;5.90;;;25.00;95.40;;;;;;5032733;28;20529;-89
2022/06/20 13:20:21;;;;;;;14.60;6.53;;;25.20;96.10;;;;;;5035669;28;20476;-91
2022/06/20 13:23:04;;;;;;;7.53;6.73;;;25.00;97.00;;;;;;5005336;28;20466;-90
2022/06/20 13:25:47;;;;;;;9.43;5.87;;;24.90;97.40;;;;;;5004979;28;20472;-92
2022/06/20 13:28:16;;;;;;;8.67;6.50;;;25.00;96.30;;;;;;5006728;28;21193;-90
2022/06/20 13:31:02;;;;;;;10.47;5.93;;;25.10;96.40;;;;;;5012068;28;21111;-91
2022/06/20 13:33:57;;;;;;;6.07;5.57;;;25.00;96.60;;;;;;5009272;28;20469;-91
2022/06/20 13:36:39;;;;;;;6.20;5.30;;;24.70;96.30;;;;;;5009269;28;20525;-92
2022/06/20 13:39:44;;;;;;;7.43;6.50;;;24.50;96.80;;;;;;5014619;28;20446;-88
2022/06/20 13:42:43;;;;;;;8.90;6.63;;;24.80;96.90;;;;;;5000789;28;20474;-87
2022/06/20 13:45:48;;;;;;;7.33;6.07;;;24.90;97.20;;;;;;4968166;28;20872;-87
2022/06/20 13:48:22;;;;;;;9.60;6.03;;;24.80;97.40;;;;;;4986838;28;20445;-88
2022/06/20 13:51:10;;;;;;;8.27;7.17;;;24.60;98.00;;;;;;5010847;28;20453;-87
2022/06/20 13:53:57;;;;;;;8.80;7.83;;;24.60;98.30;;;;;;5003562;28;20928;-87
2022/06/20 13:56:24;;;;;;;7.17;6.47;;;24.60;98.30;;;;;;5010027;28;20489;-88
2022/06/20 13:59:07;;;;;;;8.50;6.90;;;24.80;98.30;;;;;;5017127;28;21010;-87
2022/06/20 14:01:38;;;;;;;8.80;8.00;;;24.50;98.60;;;;;;5002887;28;20564;-87
2022/06/20 14:04:10;;;;;;;9.83;8.40;;;24.10;99.30;;;;;;5006472;28;20505;-88